createdAt,value
2023-02-09T00:01:51.764Z,2.18
2023-02-09T00:04:20.385Z,2.21
2023-02-09T00:06:49.115Z,2.23
2023-02-09T00:09:18.390Z,2.27
2023-02-09T00:12:10.250Z,2.24
2023-02-09T00:14:39.019Z,2.32
2023-02-09T00:17:10.151Z,2.38
2023-02-09T00:19:38.771Z,2.06
2023-02-09T00:22:07.260Z,2.29
2023-02-09T00:24:35.907Z,2.39
2023-02-09T00:27:04.910Z,2.34
2023-02-09T00:29:33.599Z,2.62
2023-02-09T00:32:02.297Z,2.43
2023-02-09T00:34:32.495Z,2.49
2023-02-09T00:37:01.100Z,2.49
2023-02-09T00:39:30.331Z,2.45
2023-02-09T00:42:08.063Z,2.42
2023-02-09T00:44:38.858Z,2.64
2023-02-09T00:47:09.136Z,2.68
2023-02-09T00:49:40.329Z,2.63
2023-02-09T00:52:10.096Z,2.93
2023-02-09T00:54:39.322Z,2.94
2023-02-09T00:57:08.091Z,2.98
2023-02-09T00:59:40.773Z,3.07
2023-02-09T01:02:09.586Z,2.93
2023-02-09T01:04:41.041Z,2.63
2023-02-09T01:07:09.781Z,2.89
2023-02-09T01:09:38.619Z,2.99
2023-02-09T01:12:08.178Z,3.03
2023-02-09T01:14:38.515Z,3.00
2023-02-09T01:17:07.598Z,3.06
2023-02-09T01:19:36.488Z,3.13
2023-02-09T01:22:07.209Z,3.05
2023-02-09T01:24:36.026Z,2.77
2023-02-09T01:27:05.567Z,2.84
2023-02-09T01:29:34.206Z,2.65
2023-02-09T01:32:03.103Z,2.67
2023-02-09T01:34:32.498Z,3.01
2023-02-09T01:37:01.554Z,2.77
2023-02-09T01:39:32.329Z,3.10
2023-02-09T01:42:00.926Z,3.07
2023-02-09T01:45:18.066Z,2.85
2023-02-09T01:47:51.918Z,2.92
2023-02-09T01:50:21.195Z,2.59
2023-02-09T01:52:50.949Z,2.47
2023-02-09T01:55:25.591Z,2.39
2023-02-09T01:57:59.591Z,2.58
2023-02-09T02:00:29.070Z,2.41
2023-02-09T02:03:02.387Z,2.20
2023-02-09T02:05:37.441Z,2.58
2023-02-09T02:08:10.426Z,2.53
2023-02-09T02:10:41.956Z,2.65
2023-02-09T02:13:11.287Z,2.09
2023-02-09T02:15:52.723Z,2.51
2023-02-09T02:18:39.709Z,1.90
2023-02-09T02:21:45.228Z,2.57
2023-02-09T02:25:02.060Z,2.66
2023-02-09T02:27:37.513Z,2.35
2023-02-09T02:30:39.238Z,2.84
2023-02-09T02:33:30.353Z,2.65
2023-02-09T02:36:08.946Z,2.81
2023-02-09T02:38:41.252Z,2.82
2023-02-09T02:41:17.830Z,2.43
2023-02-09T02:43:56.727Z,2.72
2023-02-09T02:46:34.878Z,2.65
2023-02-09T02:49:15.179Z,2.38
2023-02-09T02:51:47.065Z,2.57
2023-02-09T02:54:22.122Z,2.73
2023-02-09T02:56:56.622Z,1.95
2023-02-09T02:59:39.136Z,2.33
2023-02-09T03:02:12.531Z,2.56
2023-02-09T03:04:44.743Z,2.58
2023-02-09T03:07:13.496Z,2.84
2023-02-09T03:09:51.205Z,2.54
2023-02-09T03:12:33.610Z,2.64
2023-02-09T03:15:27.268Z,2.37
2023-02-09T03:18:08.095Z,2.35
2023-02-09T03:20:48.209Z,2.49
2023-02-09T03:23:28.965Z,2.13
2023-02-09T03:25:59.093Z,2.50
2023-02-09T03:28:35.017Z,2.54
2023-02-09T03:31:06.569Z,2.49
2023-02-09T03:33:38.196Z,1.86
2023-02-09T03:36:15.644Z,2.22
2023-02-09T03:38:44.332Z,2.02
2023-02-09T03:41:13.052Z,2.00
2023-02-09T03:43:59.221Z,2.34
2023-02-09T03:46:29.940Z,2.24
2023-02-09T03:48:58.817Z,2.45
2023-02-09T03:51:29.083Z,2.55
2023-02-09T03:53:58.009Z,2.55
2023-02-09T03:56:26.664Z,2.83
2023-02-09T03:58:56.330Z,2.42
2023-02-09T04:01:24.969Z,2.71
2023-02-09T04:03:53.906Z,2.56
2023-02-09T04:06:22.714Z,2.61
2023-02-09T04:08:52.634Z,2.80
2023-02-09T04:11:23.231Z,2.24
2023-02-09T04:13:52.079Z,2.59
2023-02-09T04:16:20.829Z,2.73
2023-02-09T04:18:49.733Z,2.57
2023-02-09T04:21:18.662Z,2.75
2023-02-09T04:23:47.646Z,2.74
2023-02-09T04:26:18.530Z,2.55
2023-02-09T04:28:47.564Z,2.46
2023-02-09T04:31:16.541Z,2.41
2023-02-09T04:33:47.631Z,2.76
2023-02-09T04:36:16.385Z,2.49
2023-02-09T04:38:45.040Z,2.68
2023-02-09T04:41:13.945Z,2.61
2023-02-09T04:43:50.824Z,2.39
2023-02-09T04:46:20.248Z,2.65
2023-02-09T04:48:49.419Z,2.52
2023-02-09T04:51:18.198Z,2.57
2023-02-09T04:53:47.094Z,2.42
2023-02-09T04:56:17.768Z,2.49
2023-02-09T04:59:05.581Z,2.35
2023-02-09T05:01:34.537Z,2.40
2023-02-09T05:04:03.586Z,2.56
2023-02-09T05:06:32.365Z,2.46
2023-02-09T05:09:01.009Z,2.83
2023-02-09T05:11:29.630Z,2.92
2023-02-09T05:14:00.570Z,2.72
2023-02-09T05:16:30.558Z,2.65
2023-02-09T05:18:59.379Z,2.62
2023-02-09T05:21:28.025Z,2.70
2023-02-09T05:23:56.770Z,2.84
2023-02-09T05:26:25.412Z,2.77
2023-02-09T05:28:54.450Z,2.73
2023-02-09T05:31:24.504Z,2.90
2023-02-09T05:33:53.205Z,2.86
2023-02-09T05:36:22.034Z,2.96
2023-02-09T05:38:50.713Z,3.01
2023-02-09T05:41:33.190Z,2.91
2023-02-09T05:44:03.513Z,3.14
2023-02-09T05:46:33.738Z,2.90
2023-02-09T05:49:03.178Z,3.17
2023-02-09T05:51:31.863Z,2.84
2023-02-09T05:54:00.864Z,2.88
2023-02-09T05:56:31.914Z,3.24
2023-02-09T05:59:00.880Z,3.02
2023-02-09T06:01:30.288Z,3.33
2023-02-09T06:04:00.391Z,2.89
2023-02-09T06:06:29.062Z,3.22
2023-02-09T06:08:57.589Z,3.19
2023-02-09T06:11:26.754Z,3.14
2023-02-09T06:13:55.316Z,3.25
2023-02-09T06:16:24.616Z,3.36
2023-02-09T06:18:53.423Z,3.53
2023-02-09T06:21:26.707Z,2.99
2023-02-09T06:23:55.328Z,3.33
2023-02-09T06:26:25.871Z,3.35
2023-02-09T06:28:56.854Z,3.39
2023-02-09T06:31:25.827Z,3.47
2023-02-09T06:33:54.557Z,3.47
2023-02-09T06:36:24.681Z,3.06
2023-02-09T06:38:53.496Z,3.31
2023-02-09T06:41:22.568Z,3.16
2023-02-09T06:43:51.175Z,2.66
2023-02-09T06:46:19.876Z,3.27
2023-02-09T06:48:48.967Z,3.02
2023-02-09T06:51:18.808Z,2.87
2023-02-09T06:53:48.955Z,3.05
2023-02-09T06:56:17.522Z,2.89
2023-02-09T06:58:46.056Z,3.24
2023-02-09T07:01:16.870Z,3.20
2023-02-09T07:03:46.279Z,3.29
2023-02-09T07:06:18.414Z,2.86
2023-02-09T07:08:50.287Z,3.04
2023-02-09T07:11:20.609Z,3.36
2023-02-09T07:13:50.131Z,3.47
2023-02-09T07:16:19.089Z,3.17
2023-02-09T07:18:48.092Z,2.90
2023-02-09T07:21:20.166Z,2.91
2023-02-09T07:23:50.952Z,3.31
2023-02-09T07:26:20.591Z,3.11
2023-02-09T07:28:49.128Z,3.39
2023-02-09T07:31:18.818Z,2.81
2023-02-09T07:33:50.404Z,3.16
2023-02-09T07:36:19.562Z,3.18
2023-02-09T07:38:50.277Z,3.24
2023-02-09T07:41:22.242Z,3.21
2023-02-09T07:43:51.051Z,3.35
2023-02-09T07:46:23.137Z,3.52
2023-02-09T07:48:52.218Z,3.30
2023-02-09T07:51:25.789Z,3.30
2023-02-09T07:53:57.635Z,3.26
2023-02-09T07:56:27.010Z,2.93
2023-02-09T07:58:57.277Z,3.33
2023-02-09T08:01:26.906Z,3.65
2023-02-09T08:03:55.665Z,3.54
2023-02-09T08:06:41.347Z,3.54
2023-02-09T08:09:14.435Z,3.49
2023-02-09T08:11:49.967Z,3.42
2023-02-09T08:14:22.366Z,3.79
2023-02-09T08:17:13.579Z,3.37
2023-02-09T08:19:43.286Z,3.50
2023-02-09T08:22:12.380Z,3.90
2023-02-09T08:24:43.815Z,3.87
2023-02-09T08:27:15.939Z,4.09
2023-02-09T08:29:46.542Z,3.96
2023-02-09T08:32:16.692Z,3.91
2023-02-09T08:34:47.093Z,3.96
2023-02-09T08:37:19.456Z,4.39
2023-02-09T08:39:53.762Z,4.24
2023-02-09T08:42:22.685Z,4.60
2023-02-09T08:44:51.728Z,4.56
2023-02-09T08:47:23.089Z,4.60
2023-02-09T08:49:52.355Z,5.12
2023-02-09T08:52:21.922Z,5.12
2023-02-09T08:54:54.221Z,4.66
2023-02-09T08:57:31.917Z,4.77
2023-02-09T09:00:08.042Z,4.48
2023-02-09T09:02:36.750Z,4.64
2023-02-09T09:05:06.372Z,4.91
2023-02-09T09:07:35.638Z,5.10
2023-02-09T09:10:08.942Z,5.38
2023-02-09T09:12:38.585Z,5.19
2023-02-09T09:15:08.450Z,5.64
2023-02-09T09:17:37.389Z,5.64
2023-02-09T09:20:07.109Z,5.83
2023-02-09T09:22:36.071Z,5.73
2023-02-09T09:25:07.356Z,6.12
2023-02-09T09:27:36.487Z,6.08
2023-02-09T09:30:06.634Z,6.24
2023-02-09T09:32:35.347Z,6.35
2023-02-09T09:35:04.099Z,6.63
2023-02-09T09:37:33.795Z,6.10
2023-02-09T09:40:02.506Z,6.53
2023-02-09T09:42:37.092Z,6.56
2023-02-09T09:45:09.076Z,6.58
2023-02-09T09:47:40.830Z,6.51
2023-02-09T09:50:18.086Z,6.42
2023-02-09T09:52:51.424Z,6.59
2023-02-09T09:55:26.655Z,6.63
2023-02-09T09:58:00.977Z,6.77
2023-02-09T10:00:36.360Z,7.02
2023-02-09T10:03:05.614Z,7.11
2023-02-09T10:05:44.463Z,7.14
2023-02-09T10:08:24.588Z,7.06
2023-02-09T10:10:59.622Z,7.20
2023-02-09T10:13:36.131Z,7.20
2023-02-09T10:16:06.347Z,6.92
2023-02-09T10:18:38.375Z,7.22
2023-02-09T10:21:10.243Z,6.65
2023-02-09T10:23:42.733Z,7.42
2023-02-09T10:26:31.109Z,7.43
2023-02-09T10:29:22.269Z,7.60
2023-02-09T10:31:56.726Z,7.65
2023-02-09T10:34:33.200Z,7.71
2023-02-09T10:37:27.560Z,7.71
2023-02-09T10:40:07.343Z,7.40
2023-02-09T10:42:38.649Z,7.92
2023-02-09T10:45:17.364Z,7.79
2023-02-09T10:48:00.224Z,7.97
2023-02-09T10:50:29.401Z,7.78
2023-02-09T10:53:01.622Z,8.16
2023-02-09T10:55:37.917Z,7.63
2023-02-09T10:58:16.646Z,8.25
2023-02-09T11:00:53.329Z,8.30
2023-02-09T11:03:26.599Z,8.29
2023-02-09T11:06:05.234Z,8.23
2023-02-09T11:08:46.918Z,8.74
2023-02-09T11:11:29.539Z,9.10
2023-02-09T11:13:59.072Z,8.84
2023-02-09T11:16:55.151Z,9.14
2023-02-09T11:20:02.249Z,9.24
2023-02-09T11:22:55.003Z,9.29
2023-02-09T11:25:28.815Z,8.52
2023-02-09T11:28:29.537Z,9.11
2023-02-09T11:31:51.275Z,8.99
2023-02-09T11:35:00.774Z,8.93
2023-02-09T11:37:41.715Z,9.17
2023-02-09T11:40:25.542Z,8.85
2023-02-09T11:43:09.378Z,9.32
2023-02-09T11:45:45.691Z,8.98
2023-02-09T11:48:24.160Z,9.14
2023-02-09T11:51:05.779Z,9.02
2023-02-09T11:53:45.322Z,9.52
2023-02-09T11:56:17.102Z,9.61
2023-02-09T11:58:53.411Z,9.43
2023-02-09T12:01:38.170Z,9.83
2023-02-09T12:04:19.081Z,9.52
2023-02-09T12:06:52.719Z,9.64
2023-02-09T12:09:37.660Z,9.48
2023-02-09T12:12:20.040Z,10.05
2023-02-09T12:15:15.150Z,9.94
2023-02-09T12:17:49.780Z,9.77
2023-02-09T12:20:32.775Z,10.15
2023-02-09T12:23:07.711Z,10.13
2023-02-09T12:25:51.706Z,10.31
2023-02-09T12:28:42.717Z,10.38
2023-02-09T12:31:27.040Z,10.35
2023-02-09T12:34:29.711Z,10.37
2023-02-09T12:37:28.438Z,10.57
2023-02-09T12:40:23.907Z,10.33
2023-02-09T12:43:26.185Z,10.51
2023-02-09T12:46:48.768Z,10.14
2023-02-09T12:49:32.336Z,10.07
2023-02-09T12:52:17.596Z,10.26
2023-02-09T12:54:53.198Z,10.52
2023-02-09T12:57:55.362Z,10.24
2023-02-09T13:00:44.324Z,10.40
2023-02-09T13:03:20.709Z,10.55
2023-02-09T13:05:50.716Z,10.15
2023-02-09T13:08:47.240Z,10.09
2023-02-09T13:11:23.218Z,10.24
2023-02-09T13:13:57.519Z,10.01
2023-02-09T13:16:48.199Z,10.12
2023-02-09T13:19:48.017Z,9.80
2023-02-09T13:22:40.833Z,9.98
2023-02-09T13:25:21.570Z,10.04
2023-02-09T13:27:51.429Z,9.80
2023-02-09T13:30:29.505Z,9.30
2023-02-09T13:33:09.122Z,9.52
2023-02-09T13:35:52.279Z,9.62
2023-02-09T13:38:23.162Z,9.60
2023-02-09T13:40:53.213Z,9.71
2023-02-09T13:43:32.518Z,9.65
2023-02-09T13:46:03.151Z,9.87
2023-02-09T13:48:37.625Z,9.89
2023-02-09T13:51:17.054Z,9.83
2023-02-09T13:53:58.439Z,9.79
2023-02-09T13:56:29.004Z,9.54
2023-02-09T13:58:58.360Z,9.42
2023-02-09T14:01:32.071Z,9.71
2023-02-09T14:04:08.396Z,9.52
2023-02-09T14:06:40.481Z,9.14
2023-02-09T14:09:17.581Z,9.40
2023-02-09T14:11:53.307Z,9.27
2023-02-09T14:14:26.874Z,9.29
2023-02-09T14:17:24.313Z,9.47
2023-02-09T14:19:54.480Z,9.50
2023-02-09T14:22:33.761Z,9.80
2023-02-09T14:25:18.332Z,9.43
2023-02-09T14:27:50.477Z,9.54
2023-02-09T14:30:22.180Z,9.04
2023-02-09T14:32:55.461Z,9.45
2023-02-09T14:35:26.827Z,9.45
2023-02-09T14:37:59.658Z,9.47
2023-02-09T14:40:34.269Z,9.47
2023-02-09T14:43:24.871Z,9.41
2023-02-09T14:46:02.365Z,9.45
2023-02-09T14:48:32.244Z,9.50
2023-02-09T14:51:03.474Z,9.24
2023-02-09T14:53:34.306Z,9.25
2023-02-09T14:56:03.271Z,9.09
2023-02-09T14:58:35.424Z,9.21
2023-02-09T15:01:04.650Z,9.23
2023-02-09T15:03:34.629Z,9.18
2023-02-09T15:06:05.386Z,9.29
2023-02-09T15:08:39.042Z,9.39
2023-02-09T15:11:25.747Z,9.04
2023-02-09T15:14:04.045Z,9.19
2023-02-09T15:16:33.296Z,8.99
2023-02-09T15:19:04.836Z,9.08
2023-02-09T15:21:33.664Z,8.85
2023-02-09T15:24:02.633Z,8.96
2023-02-09T15:26:34.136Z,9.15
2023-02-09T15:29:08.195Z,8.76
2023-02-09T15:31:36.916Z,8.89
2023-02-09T15:34:06.109Z,9.00
2023-02-09T15:36:35.395Z,8.90
2023-02-09T15:39:05.282Z,8.67
2023-02-09T15:41:51.367Z,8.81
2023-02-09T15:44:39.519Z,8.81
2023-02-09T15:47:25.403Z,8.93
2023-02-09T15:49:56.253Z,9.19
2023-02-09T15:52:24.986Z,9.02
2023-02-09T15:54:54.658Z,8.88
2023-02-09T15:57:25.256Z,8.93
2023-02-09T15:59:55.390Z,8.88
2023-02-09T16:02:24.251Z,8.94
2023-02-09T16:04:53.147Z,8.76
2023-02-09T16:07:25.964Z,8.77
2023-02-09T16:09:54.751Z,9.19
2023-02-09T16:12:23.540Z,9.17
2023-02-09T16:14:53.328Z,8.96
2023-02-09T16:17:25.058Z,8.99
2023-02-09T16:19:53.776Z,8.93
2023-02-09T16:22:25.164Z,8.63
2023-02-09T16:24:54.017Z,9.01
2023-02-09T16:27:28.481Z,8.86
2023-02-09T16:30:00.644Z,9.04
2023-02-09T16:32:30.825Z,9.13
2023-02-09T16:35:15.910Z,8.90
2023-02-09T16:37:48.551Z,8.70
2023-02-09T16:40:28.490Z,9.06
2023-02-09T16:42:58.449Z,9.19
2023-02-09T16:45:44.716Z,8.86
2023-02-09T16:48:25.292Z,8.88
2023-02-09T16:50:55.806Z,8.92
2023-02-09T16:53:33.128Z,8.93
2023-02-09T16:56:04.989Z,8.88
2023-02-09T16:58:34.174Z,8.90
2023-02-09T17:01:03.594Z,8.86
2023-02-09T17:03:39.448Z,8.77
2023-02-09T17:06:18.022Z,8.76
2023-02-09T17:08:47.586Z,9.06
2023-02-09T17:11:19.125Z,8.96
2023-02-09T17:13:48.992Z,9.19
2023-02-09T17:16:22.364Z,9.04
2023-02-09T17:19:03.837Z,9.04
2023-02-09T17:21:36.485Z,9.07
2023-02-09T17:24:12.862Z,8.82
2023-02-09T17:26:42.079Z,8.88
2023-02-09T17:29:12.331Z,8.47
2023-02-09T17:31:53.344Z,8.74
2023-02-09T17:34:27.349Z,8.86
2023-02-09T17:36:55.970Z,8.73
2023-02-09T17:39:25.104Z,8.78
2023-02-09T17:41:54.460Z,8.75
2023-02-09T17:44:44.648Z,8.55
2023-02-09T17:47:17.101Z,8.41
2023-02-09T17:49:47.413Z,8.44
2023-02-09T17:52:21.102Z,8.30
2023-02-09T17:54:51.125Z,8.42
2023-02-09T17:57:21.106Z,8.26
2023-02-09T17:59:50.596Z,8.38
2023-02-09T18:02:20.584Z,8.34
2023-02-09T18:04:50.701Z,8.24
2023-02-09T18:07:20.882Z,8.28
2023-02-09T18:09:49.681Z,8.18
2023-02-09T18:12:24.699Z,8.16
2023-02-09T18:14:53.833Z,8.15
2023-02-09T18:17:22.559Z,8.12
2023-02-09T18:19:52.495Z,7.99
2023-02-09T18:22:21.211Z,7.83
2023-02-09T18:24:50.043Z,7.83
2023-02-09T18:27:21.836Z,7.75
2023-02-09T18:29:50.554Z,7.42
2023-02-09T18:32:21.045Z,7.59
2023-02-09T18:34:51.746Z,7.63
2023-02-09T18:37:20.441Z,7.59
2023-02-09T18:39:48.927Z,7.57
2023-02-09T18:42:17.732Z,7.58
2023-02-09T18:44:46.809Z,7.53
2023-02-09T18:47:16.233Z,7.48
2023-02-09T18:49:44.991Z,7.45
2023-02-09T18:52:18.920Z,7.31
2023-02-09T18:54:48.335Z,7.30
2023-02-09T18:57:16.964Z,7.27
2023-02-09T18:59:47.914Z,7.31
2023-02-09T19:02:17.465Z,7.30
2023-02-09T19:04:46.234Z,7.26
2023-02-09T19:07:17.112Z,7.17
2023-02-09T19:09:46.901Z,7.15
2023-02-09T19:12:15.979Z,7.05
2023-02-09T19:14:47.732Z,6.97
2023-02-09T19:17:19.121Z,6.91
2023-02-09T19:19:48.694Z,6.81
2023-02-09T19:22:22.395Z,6.72
2023-02-09T19:24:53.329Z,6.78
2023-02-09T19:27:22.122Z,6.64
2023-02-09T19:29:55.702Z,6.43
2023-02-09T19:32:26.057Z,6.48
2023-02-09T19:34:55.160Z,6.45
2023-02-09T19:37:25.707Z,6.49
2023-02-09T19:40:04.231Z,6.50
2023-02-09T19:42:33.692Z,6.46
2023-02-09T19:45:02.203Z,6.48
2023-02-09T19:47:30.962Z,6.45
2023-02-09T19:50:00.685Z,6.39
2023-02-09T19:52:49.254Z,6.39
2023-02-09T19:55:18.114Z,6.26
2023-02-09T19:57:47.318Z,6.19
2023-02-09T20:00:19.806Z,6.14
2023-02-09T20:02:49.413Z,6.12
2023-02-09T20:05:19.452Z,6.05
2023-02-09T20:07:49.867Z,5.97
2023-02-09T20:10:19.205Z,5.99
2023-02-09T20:12:47.879Z,5.96
2023-02-09T20:15:17.143Z,5.94
2023-02-09T20:20:14.636Z,5.79
2023-02-09T20:22:43.413Z,5.79
2023-02-09T20:25:15.480Z,5.80
2023-02-09T20:27:44.398Z,5.78
2023-02-09T20:30:14.595Z,5.76
2023-02-09T20:32:43.522Z,5.71
2023-02-09T20:35:13.620Z,5.66
2023-02-09T20:37:42.370Z,5.60
2023-02-09T20:40:13.637Z,5.51
2023-02-09T20:42:59.926Z,5.47
2023-02-09T20:45:45.788Z,5.42
2023-02-09T20:48:15.049Z,5.36
2023-02-09T20:50:45.465Z,5.29
2023-02-09T20:53:14.814Z,5.31
2023-02-09T20:55:46.228Z,5.25
2023-02-09T20:58:15.651Z,5.23
2023-02-09T21:00:44.983Z,5.15
2023-02-09T21:03:14.115Z,5.13
2023-02-09T21:05:45.169Z,5.12
2023-02-09T21:08:13.944Z,5.08
2023-02-09T21:10:47.458Z,5.04
2023-02-09T21:13:16.813Z,4.99
2023-02-09T21:15:45.325Z,4.98
2023-02-09T21:18:14.298Z,4.90
2023-02-09T21:20:43.227Z,4.91
2023-02-09T21:23:11.947Z,4.89
2023-02-09T21:25:40.733Z,4.85
2023-02-09T21:28:11.344Z,4.88
2023-02-09T21:30:44.493Z,4.85
2023-02-09T21:33:14.903Z,4.80
2023-02-09T21:35:44.345Z,4.82
2023-02-09T21:38:13.615Z,4.88
2023-02-09T21:40:42.743Z,4.86
2023-02-09T21:43:13.376Z,4.87
2023-02-09T21:45:42.410Z,4.79
2023-02-09T21:48:13.046Z,4.70
2023-02-09T21:50:42.080Z,4.71
2023-02-09T21:53:10.757Z,4.80
2023-02-09T21:55:39.438Z,4.81
2023-02-09T21:58:09.130Z,4.84
2023-02-09T22:00:39.065Z,4.74
2023-02-09T22:03:07.682Z,4.67
2023-02-09T22:05:36.331Z,4.69
2023-02-09T22:08:05.116Z,4.78
2023-02-09T22:10:33.900Z,4.75
2023-02-09T22:13:08.458Z,4.82
2023-02-09T22:15:41.646Z,4.74
2023-02-09T22:18:13.572Z,4.79
2023-02-09T22:20:42.790Z,4.73
2023-02-09T22:23:11.503Z,4.80
2023-02-09T22:25:40.773Z,4.79
2023-02-09T22:28:09.627Z,4.80
2023-02-09T22:30:39.676Z,4.87
2023-02-09T22:33:10.091Z,4.86
2023-02-09T22:35:43.877Z,4.82
2023-02-09T22:38:12.689Z,4.97
2023-02-09T22:40:41.516Z,4.86
2023-02-09T22:43:10.218Z,5.01
2023-02-09T22:45:40.972Z,4.96
2023-02-09T22:48:11.942Z,4.91
2023-02-09T22:50:40.559Z,4.91
2023-02-09T22:53:09.139Z,4.91
2023-02-09T22:55:37.636Z,4.94
2023-02-09T22:58:06.191Z,4.91
2023-02-09T23:00:34.715Z,4.93
2023-02-09T23:03:04.793Z,4.83
2023-02-09T23:05:33.435Z,4.78
2023-02-09T23:08:01.920Z,4.77
2023-02-09T23:10:32.302Z,4.80
2023-02-09T23:13:01.805Z,4.69
2023-02-09T23:15:30.383Z,4.62
2023-02-09T23:17:59.199Z,4.84
2023-02-09T23:20:30.618Z,4.89
2023-02-09T23:23:01.450Z,4.85
2023-02-09T23:25:30.085Z,4.85
2023-02-09T23:27:58.882Z,4.82
2023-02-09T23:30:28.551Z,4.78
2023-02-09T23:32:57.220Z,4.70
2023-02-09T23:35:26.009Z,4.75
2023-02-09T23:37:58.053Z,4.70
2023-02-09T23:40:26.728Z,4.77
2023-02-09T23:42:55.212Z,4.70
2023-02-09T23:45:24.555Z,4.48
2023-02-09T23:47:53.163Z,4.56
2023-02-09T23:50:21.593Z,4.60
2023-02-09T23:52:50.298Z,4.58
2023-02-09T23:55:20.417Z,4.61
2023-02-09T23:57:49.044Z,4.64
